createdAt,value
2018-08-11T00:02:07.587Z,16.84
2018-08-11T00:04:36.087Z,16.86
2018-08-11T00:07:04.692Z,16.92
2018-08-11T00:09:33.151Z,16.95
2018-08-11T00:12:01.680Z,17.07
2018-08-11T00:14:30.181Z,17.19
2018-08-11T00:16:58.675Z,17.32
2018-08-11T00:19:27.117Z,17.27
2018-08-11T00:21:55.573Z,17.18
2018-08-11T00:24:24.069Z,17.22
2018-08-11T00:26:52.513Z,17.25
2018-08-11T00:29:20.943Z,17.23
2018-08-11T00:31:49.441Z,17.23
2018-08-11T00:34:17.877Z,17.38
2018-08-11T00:36:46.353Z,17.38
2018-08-11T00:39:14.836Z,17.35
2018-08-11T00:41:43.297Z,17.33
2018-08-11T00:44:11.786Z,17.35
2018-08-11T00:46:40.389Z,17.30
2018-08-11T00:49:08.882Z,17.30
2018-08-11T00:51:37.314Z,17.33
2018-08-11T00:54:05.858Z,17.32
2018-08-11T00:56:34.377Z,17.39
2018-08-11T00:59:02.836Z,17.34
2018-08-11T01:01:31.249Z,17.30
2018-08-11T01:03:59.742Z,17.29
2018-08-11T01:06:28.151Z,17.32
2018-08-11T01:08:56.614Z,17.25
2018-08-11T01:11:25.084Z,17.29
2018-08-11T01:13:53.669Z,17.28
2018-08-11T01:16:22.073Z,17.25
2018-08-11T01:18:50.588Z,17.22
2018-08-11T01:21:19.023Z,17.23
2018-08-11T01:23:47.487Z,17.18
2018-08-11T01:26:15.933Z,17.25
2018-08-11T01:28:44.381Z,17.21
2018-08-11T01:31:12.826Z,17.29
2018-08-11T01:33:41.288Z,17.37
2018-08-11T01:36:09.761Z,17.42
2018-08-11T01:38:38.262Z,17.48
2018-08-11T01:41:06.765Z,17.54
2018-08-11T01:43:35.225Z,17.55
2018-08-11T01:46:03.725Z,17.63
2018-08-11T01:48:32.118Z,17.60
2018-08-11T01:51:00.667Z,17.68
2018-08-11T01:53:29.077Z,17.70
2018-08-11T01:55:57.572Z,17.77
2018-08-11T01:58:25.985Z,17.88
2018-08-11T02:00:54.410Z,17.93
2018-08-11T02:03:22.842Z,17.95
2018-08-11T02:05:51.357Z,18.02
2018-08-11T02:08:19.825Z,17.95
2018-08-11T02:10:48.353Z,17.49
2018-08-11T02:13:16.754Z,16.92
2018-08-11T02:15:45.184Z,16.63
2018-08-11T02:18:13.582Z,16.47
2018-08-11T02:20:42.050Z,16.28
2018-08-11T02:23:10.517Z,16.02
2018-08-11T02:25:38.974Z,15.91
2018-08-11T02:28:07.418Z,15.77
2018-08-11T02:30:35.901Z,15.76
2018-08-11T02:33:04.333Z,15.67
2018-08-11T02:35:32.785Z,15.61
2018-08-11T02:38:01.279Z,15.56
2018-08-11T02:40:29.779Z,15.59
2018-08-11T02:42:58.265Z,15.73
2018-08-11T02:45:26.778Z,15.73
2018-08-11T02:47:55.258Z,15.61
2018-08-11T02:50:23.745Z,15.69
2018-08-11T02:52:52.198Z,15.60
2018-08-11T02:55:20.607Z,15.54
2018-08-11T02:57:49.009Z,15.50
2018-08-11T03:00:17.462Z,15.39
2018-08-11T03:02:45.893Z,15.47
2018-08-11T03:05:14.379Z,15.39
2018-08-11T03:07:42.804Z,15.44
2018-08-11T03:10:12.245Z,15.48
2018-08-11T03:12:41.432Z,15.46
2018-08-11T03:15:11.585Z,15.54
2018-08-11T03:17:40.891Z,15.57
2018-08-11T03:20:12.160Z,15.61
2018-08-11T03:22:40.601Z,15.62
2018-08-11T03:25:10.377Z,15.61
2018-08-11T03:27:39.033Z,15.59
2018-08-11T03:30:07.989Z,15.59
2018-08-11T03:32:36.640Z,15.63
2018-08-11T03:35:05.940Z,15.72
2018-08-11T03:37:34.506Z,15.82
2018-08-11T03:40:02.944Z,15.78
2018-08-11T03:42:31.355Z,15.58
2018-08-11T03:44:59.865Z,15.39
2018-08-11T03:47:28.286Z,15.26
2018-08-11T03:49:56.784Z,15.18
2018-08-11T03:52:25.253Z,15.11
2018-08-11T03:54:53.685Z,15.02
2018-08-11T03:57:22.159Z,14.98
2018-08-11T03:59:50.589Z,14.95
2018-08-11T04:02:19.083Z,14.94
2018-08-11T04:04:47.501Z,14.80
2018-08-11T04:07:15.960Z,14.62
2018-08-11T04:09:44.401Z,14.65
2018-08-11T04:12:12.877Z,14.72
2018-08-11T04:14:41.266Z,14.70
2018-08-11T04:17:09.701Z,14.67
2018-08-11T04:19:38.178Z,14.62
2018-08-11T04:22:06.832Z,14.58
2018-08-11T04:24:35.261Z,14.58
2018-08-11T04:27:03.749Z,14.86
2018-08-11T04:29:32.182Z,15.03
2018-08-11T04:32:00.666Z,15.13
2018-08-11T04:34:29.158Z,15.07
2018-08-11T04:36:59.737Z,15.12
2018-08-11T04:39:28.192Z,15.03
2018-08-11T04:41:56.675Z,15.00
2018-08-11T04:44:25.207Z,14.97
2018-08-11T04:46:53.789Z,14.96
2018-08-11T04:49:22.232Z,14.99
2018-08-11T04:51:50.823Z,15.06
2018-08-11T04:54:19.223Z,15.20
2018-08-11T04:56:47.669Z,15.34
2018-08-11T04:59:16.589Z,15.35
2018-08-11T05:01:44.989Z,15.39
2018-08-11T05:04:13.416Z,15.43
2018-08-11T05:06:41.874Z,15.32
2018-08-11T05:09:11.099Z,15.46
2018-08-11T05:11:39.576Z,15.62
2018-08-11T05:14:08.134Z,15.69
2018-08-11T05:16:36.671Z,15.63
2018-08-11T05:19:05.116Z,15.62
2018-08-11T05:21:33.668Z,15.59
2018-08-11T05:24:02.145Z,15.55
2018-08-11T05:26:30.656Z,15.62
2018-08-11T05:28:59.082Z,15.74
2018-08-11T05:31:27.574Z,15.86
2018-08-11T05:33:55.977Z,15.98
2018-08-11T05:36:24.466Z,15.98
2018-08-11T05:38:52.880Z,16.01
2018-08-11T05:41:21.361Z,16.11
2018-08-11T05:43:49.767Z,16.19
2018-08-11T05:46:18.269Z,16.21
2018-08-11T05:48:46.678Z,16.33
2018-08-11T05:51:15.145Z,16.31
2018-08-11T05:53:43.593Z,16.37
2018-08-11T05:56:12.074Z,16.50
2018-08-11T05:58:40.556Z,16.57
2018-08-11T06:01:09.058Z,16.60
2018-08-11T06:03:37.486Z,16.62
2018-08-11T06:06:05.934Z,16.54
2018-08-11T06:08:34.419Z,16.74
2018-08-11T06:11:02.905Z,16.68
2018-08-11T06:13:31.359Z,16.72
2018-08-11T06:15:59.825Z,16.75
2018-08-11T06:18:28.338Z,16.85
2018-08-11T06:20:56.889Z,16.70
2018-08-11T06:23:25.539Z,16.72
2018-08-11T06:25:54.056Z,16.77
2018-08-11T06:28:22.704Z,16.71
2018-08-11T06:30:51.129Z,16.81
2018-08-11T06:33:19.611Z,16.87
2018-08-11T06:35:48.063Z,16.94
2018-08-11T06:38:16.542Z,16.90
2018-08-11T06:40:45.072Z,17.00
2018-08-11T06:43:13.451Z,17.16
2018-08-11T06:45:41.910Z,17.10
2018-08-11T06:48:10.349Z,17.24
2018-08-11T06:50:38.769Z,17.43
2018-08-11T06:53:07.239Z,17.60
2018-08-11T06:55:35.759Z,17.68
2018-08-11T06:58:04.298Z,17.88
2018-08-11T07:00:32.704Z,17.72
2018-08-11T07:03:01.159Z,17.44
2018-08-11T07:05:29.605Z,17.28
2018-08-11T07:07:58.044Z,17.67
2018-08-11T07:10:26.494Z,17.70
2018-08-11T07:12:54.946Z,17.81
2018-08-11T07:15:23.449Z,18.18
2018-08-11T07:17:54.630Z,18.08
2018-08-11T07:20:23.067Z,17.83
2018-08-11T07:22:51.527Z,17.84
2018-08-11T07:25:19.931Z,18.06
2018-08-11T07:27:48.385Z,18.13
2018-08-11T07:30:16.867Z,18.03
2018-08-11T07:32:45.294Z,17.93
2018-08-11T07:35:13.749Z,18.58
2018-08-11T07:37:42.400Z,18.19
2018-08-11T07:40:10.888Z,18.31
2018-08-11T07:42:39.381Z,17.96
2018-08-11T07:45:07.837Z,17.98
2018-08-11T07:47:36.318Z,18.62
2018-08-11T07:50:05.388Z,18.80
2018-08-11T07:52:34.313Z,18.44
2018-08-11T07:55:02.744Z,17.98
2018-08-11T07:57:31.233Z,17.63
2018-08-11T07:59:59.698Z,17.73
2018-08-11T08:02:28.174Z,18.14
2018-08-11T08:04:56.602Z,18.30
2018-08-11T08:07:25.018Z,18.59
2018-08-11T08:09:53.490Z,18.72
2018-08-11T08:12:22.765Z,19.04
2018-08-11T08:14:53.689Z,19.15
2018-08-11T08:17:23.152Z,18.48
2018-08-11T08:19:52.665Z,18.67
2018-08-11T08:22:22.706Z,18.02
2018-08-11T08:24:51.357Z,17.96
2018-08-11T08:27:20.326Z,18.42
2018-08-11T08:29:48.999Z,18.60
2018-08-11T08:32:17.727Z,18.51
2018-08-11T08:34:47.220Z,18.67
2018-08-11T08:37:16.725Z,18.75
2018-08-11T08:39:45.390Z,19.44
2018-08-11T08:42:14.827Z,19.77
2018-08-11T08:44:44.449Z,20.07
2018-08-11T08:47:13.541Z,20.11
2018-08-11T08:49:43.572Z,19.77
2018-08-11T08:52:13.290Z,18.94
2018-08-11T08:54:42.749Z,18.84
2018-08-11T08:57:12.877Z,19.07
2018-08-11T08:59:42.215Z,18.80
2018-08-11T09:02:15.829Z,18.86
2018-08-11T09:04:44.868Z,19.09
2018-08-11T09:07:14.389Z,19.13
2018-08-11T09:09:43.326Z,19.22
2018-08-11T09:12:12.568Z,19.37
2018-08-11T09:14:41.669Z,19.47
2018-08-11T09:17:10.565Z,19.36
2018-08-11T09:19:40.749Z,19.46
2018-08-11T09:22:09.923Z,19.44
2018-08-11T09:24:39.356Z,19.69
2018-08-11T09:27:08.548Z,19.87
2018-08-11T09:29:38.462Z,19.72
2018-08-11T09:32:07.832Z,19.82
2018-08-11T09:34:39.114Z,19.79
2018-08-11T09:37:07.809Z,19.88
2018-08-11T09:39:38.048Z,19.90
2018-08-11T09:42:07.133Z,19.65
2018-08-11T09:44:35.854Z,19.85
2018-08-11T09:47:05.001Z,19.97
2018-08-11T09:49:34.730Z,20.06
2018-08-11T09:52:04.438Z,20.23
2018-08-11T09:54:33.875Z,20.14
2018-08-11T09:57:05.386Z,20.31
2018-08-11T09:59:35.542Z,20.41
2018-08-11T10:02:09.542Z,20.17
2018-08-11T10:04:39.155Z,20.28
2018-08-11T10:07:09.023Z,20.18
2018-08-11T10:09:39.355Z,20.49
2018-08-11T10:12:08.942Z,20.57
2018-08-11T10:14:38.021Z,20.95
2018-08-11T10:17:07.463Z,21.34
2018-08-11T10:19:38.173Z,21.40
2018-08-11T10:22:07.225Z,20.92
2018-08-11T10:24:36.145Z,20.84
2018-08-11T10:27:05.517Z,21.57
2018-08-11T10:29:35.082Z,21.00
2018-08-11T10:32:03.962Z,20.76
2018-08-11T10:34:32.515Z,20.74
2018-08-11T10:37:01.074Z,21.29
2018-08-11T10:39:31.205Z,21.37
2018-08-11T10:42:00.385Z,21.21
2018-08-11T10:44:29.652Z,21.24
2018-08-11T10:46:59.008Z,21.36
2018-08-11T10:49:28.882Z,21.21
2018-08-11T10:51:58.741Z,20.98
2018-08-11T10:54:28.560Z,20.46
2018-08-11T10:56:57.693Z,20.97
2018-08-11T10:59:30.813Z,21.43
2018-08-11T11:02:00.241Z,21.19
2018-08-11T11:04:29.597Z,21.03
2018-08-11T11:06:59.645Z,21.19
2018-08-11T11:09:29.125Z,21.48
2018-08-11T11:11:57.710Z,21.46
2018-08-11T11:14:28.099Z,21.62
2018-08-11T11:16:58.266Z,21.35
2018-08-11T11:19:27.576Z,21.79
2018-08-11T11:21:56.949Z,21.99
2018-08-11T11:24:26.877Z,21.81
2018-08-11T11:27:01.809Z,21.40
2018-08-11T11:29:31.977Z,22.19
2018-08-11T11:32:01.890Z,22.44
2018-08-11T11:34:31.836Z,22.43
2018-08-11T11:37:01.495Z,22.43
2018-08-11T11:39:30.712Z,22.31
2018-08-11T11:41:59.680Z,22.34
2018-08-11T11:44:30.090Z,21.88
2018-08-11T11:46:58.854Z,22.45
2018-08-11T11:49:27.601Z,22.52
2018-08-11T11:51:56.590Z,22.67
2018-08-11T11:54:26.289Z,22.05
2018-08-11T11:56:55.540Z,22.21
2018-08-11T11:59:25.660Z,22.23
2018-08-11T12:01:54.900Z,22.27
2018-08-11T12:04:24.487Z,22.23
2018-08-11T12:06:53.840Z,22.42
2018-08-11T12:09:22.686Z,21.96
2018-08-11T12:11:51.888Z,22.72
2018-08-11T12:14:21.471Z,22.44
2018-08-11T12:16:50.995Z,22.88
2018-08-11T12:19:20.328Z,22.67
2018-08-11T12:21:49.125Z,22.23
2018-08-11T12:24:17.917Z,23.07
2018-08-11T12:26:47.200Z,23.22
2018-08-11T12:29:16.234Z,23.05
2018-08-11T12:31:47.232Z,22.66
2018-08-11T12:34:16.269Z,23.35
2018-08-11T12:36:46.566Z,22.82
2018-08-11T12:39:17.192Z,23.16
2018-08-11T12:41:46.153Z,22.78
2018-08-11T12:44:15.865Z,23.14
2018-08-11T12:46:44.916Z,23.22
2018-08-11T12:49:20.703Z,23.14
2018-08-11T12:51:50.127Z,23.67
2018-08-11T12:54:20.089Z,23.49
2018-08-11T12:56:49.964Z,23.43
2018-08-11T12:59:19.032Z,24.01
2018-08-11T13:01:48.853Z,23.21
2018-08-11T13:04:17.411Z,23.60
2018-08-11T13:06:46.932Z,24.12
2018-08-11T13:09:20.409Z,24.05
2018-08-11T13:11:49.926Z,24.28
2018-08-11T13:14:18.821Z,23.72
2018-08-11T13:16:47.674Z,24.27
2018-08-11T13:19:17.792Z,24.54
2018-08-11T13:21:48.189Z,24.75
2018-08-11T13:24:18.419Z,26.26
2018-08-11T13:26:47.428Z,27.33
2018-08-11T13:29:17.024Z,26.98
2018-08-11T13:31:47.897Z,27.38
2018-08-11T13:34:24.413Z,26.54
2018-08-11T13:36:54.411Z,27.72
2018-08-11T13:39:23.894Z,25.90
2018-08-11T13:41:52.780Z,25.08
2018-08-11T13:44:28.106Z,24.38
2018-08-11T13:46:59.166Z,25.54
2018-08-11T13:49:28.869Z,26.37
2018-08-11T13:51:59.370Z,27.49
2018-08-11T13:54:29.582Z,26.90
2018-08-11T13:56:58.385Z,27.55
2018-08-11T13:59:27.181Z,27.63
2018-08-11T14:01:56.094Z,28.52
2018-08-11T14:04:29.199Z,29.28
2018-08-11T14:06:58.892Z,29.43
2018-08-11T14:09:31.142Z,27.21
2018-08-11T14:12:00.182Z,27.16
2018-08-11T14:14:29.408Z,27.48
2018-08-11T14:17:00.161Z,27.11
2018-08-11T14:19:30.053Z,27.37
2018-08-11T14:22:00.071Z,27.20
2018-08-11T14:24:30.249Z,24.90
2018-08-11T14:27:02.808Z,25.65
2018-08-11T14:29:31.834Z,26.00
2018-08-11T14:32:01.381Z,25.41
2018-08-11T14:34:30.092Z,25.95
2018-08-11T14:37:00.005Z,26.46
2018-08-11T14:39:30.586Z,27.51
2018-08-11T14:42:08.423Z,27.47
2018-08-11T14:44:37.712Z,28.46
2018-08-11T14:47:07.737Z,27.88
2018-08-11T14:49:36.809Z,27.65
2018-08-11T14:52:07.829Z,28.49
2018-08-11T14:54:39.263Z,27.61
2018-08-11T14:57:09.495Z,27.89
2018-08-11T14:59:46.328Z,28.10
2018-08-11T15:02:15.917Z,27.30
2018-08-11T15:04:45.257Z,28.59
2018-08-11T15:07:17.181Z,27.58
2018-08-11T15:09:47.313Z,27.50
2018-08-11T15:12:17.209Z,29.02
2018-08-11T15:14:47.826Z,29.58
2018-08-11T15:17:16.658Z,27.06
2018-08-11T15:19:46.357Z,25.16
2018-08-11T15:22:17.101Z,25.55
2018-08-11T15:24:46.711Z,24.53
2018-08-11T15:27:17.222Z,25.47
2018-08-11T15:29:45.913Z,25.75
2018-08-11T15:32:15.293Z,27.91
2018-08-11T15:34:45.823Z,28.61
2018-08-11T15:37:16.018Z,27.92
2018-08-11T15:39:47.270Z,29.08
2018-08-11T15:42:18.513Z,27.91
2018-08-11T15:44:48.129Z,28.91
2018-08-11T15:47:18.481Z,27.95
2018-08-11T15:49:50.954Z,28.26
2018-08-11T15:52:19.917Z,28.12
2018-08-11T15:54:51.686Z,27.27
2018-08-11T15:57:21.909Z,26.10
2018-08-11T15:59:51.523Z,27.38
2018-08-11T16:02:21.554Z,27.62
2018-08-11T16:04:50.842Z,28.50
2018-08-11T16:07:20.809Z,28.01
2018-08-11T16:09:49.696Z,28.95
2018-08-11T16:12:18.676Z,27.73
2018-08-11T16:14:48.138Z,26.66
2018-08-11T16:17:17.957Z,26.33
2018-08-11T16:19:47.646Z,26.24
2018-08-11T16:22:18.208Z,27.37
2018-08-11T16:24:48.090Z,27.81
2018-08-11T16:27:18.806Z,27.61
2018-08-11T16:29:48.270Z,27.64
2018-08-11T16:32:21.289Z,26.99
2018-08-11T16:34:49.933Z,27.47
2018-08-11T16:37:18.841Z,28.25
2018-08-11T16:39:47.943Z,26.89
2018-08-11T16:42:18.533Z,26.56
2018-08-11T16:44:47.866Z,26.17
2018-08-11T16:47:16.488Z,25.99
2018-08-11T16:49:46.743Z,25.64
2018-08-11T16:52:15.789Z,24.67
2018-08-11T16:54:45.206Z,24.61
2018-08-11T16:57:14.021Z,25.60
2018-08-11T16:59:44.979Z,25.78
2018-08-11T17:02:14.277Z,25.34
2018-08-11T17:04:43.785Z,25.83
2018-08-11T17:07:15.968Z,25.18
2018-08-11T17:09:46.632Z,24.57
2018-08-11T17:12:16.430Z,23.93
2018-08-11T17:14:45.736Z,23.95
2018-08-11T17:17:15.983Z,23.90
2018-08-11T17:19:45.386Z,23.78
2018-08-11T17:22:14.522Z,23.46
2018-08-11T17:24:44.331Z,23.62
2018-08-11T17:27:14.281Z,23.62
2018-08-11T17:29:49.324Z,23.65
2018-08-11T17:32:19.605Z,23.28
2018-08-11T17:34:48.932Z,23.09
2018-08-11T17:37:17.697Z,23.03
2018-08-11T17:39:48.110Z,23.02
2018-08-11T17:42:16.750Z,23.00
2018-08-11T17:44:45.760Z,22.95
2018-08-11T17:47:14.922Z,23.02
2018-08-11T17:49:44.472Z,22.78
2018-08-11T17:52:17.497Z,22.96
2018-08-11T17:54:47.170Z,22.91
2018-08-11T17:57:16.033Z,23.02
2018-08-11T17:59:44.800Z,22.90
2018-08-11T18:02:14.158Z,22.62
2018-08-11T18:04:44.077Z,22.75
2018-08-11T18:07:13.868Z,22.73
2018-08-11T18:09:44.045Z,22.67
2018-08-11T18:12:20.049Z,22.67
2018-08-11T18:14:49.825Z,22.59
2018-08-11T18:17:20.076Z,22.40
2018-08-11T18:19:49.763Z,22.69
2018-08-11T18:22:18.916Z,23.35
2018-08-11T18:24:48.019Z,22.49
2018-08-11T18:27:16.818Z,22.38
2018-08-11T18:29:47.283Z,21.99
2018-08-11T18:32:15.926Z,21.90
2018-08-11T18:34:46.739Z,21.76
2018-08-11T18:37:16.004Z,21.66
2018-08-11T18:39:44.685Z,21.51
2018-08-11T18:42:14.501Z,21.42
2018-08-11T18:44:43.506Z,21.41
2018-08-11T18:47:12.693Z,21.19
2018-08-11T18:49:43.740Z,21.14
2018-08-11T18:52:13.762Z,21.04
2018-08-11T18:54:43.102Z,20.90
2018-08-11T18:57:14.567Z,20.72
2018-08-11T18:59:44.667Z,20.70
2018-08-11T19:02:14.286Z,20.69
2018-08-11T19:04:43.638Z,20.57
2018-08-11T19:07:13.269Z,20.53
2018-08-11T19:09:42.458Z,20.49
2018-08-11T19:12:12.243Z,20.40
2018-08-11T19:14:40.783Z,20.34
2018-08-11T19:17:10.983Z,20.20
2018-08-11T19:19:40.304Z,20.06
2018-08-11T19:22:10.200Z,19.90
2018-08-11T19:24:40.014Z,19.75
2018-08-11T19:27:09.921Z,19.59
2018-08-11T19:29:40.280Z,19.44
2018-08-11T19:32:11.090Z,19.36
2018-08-11T19:34:40.901Z,19.26
2018-08-11T19:37:13.213Z,19.17
2018-08-11T19:39:42.436Z,19.09
2018-08-11T19:42:16.008Z,18.97
2018-08-11T19:44:46.241Z,18.88
2018-08-11T19:47:16.045Z,18.76
2018-08-11T19:49:46.401Z,18.66
2018-08-11T19:52:16.461Z,18.52
2018-08-11T19:54:49.757Z,18.42
2018-08-11T19:57:18.878Z,18.34
2018-08-11T19:59:52.263Z,18.26
2018-08-11T20:02:23.254Z,18.14
2018-08-11T20:04:52.061Z,18.08
2018-08-11T20:07:21.140Z,18.02
2018-08-11T20:09:51.426Z,17.91
2018-08-11T20:12:21.929Z,17.84
2018-08-11T20:14:51.003Z,17.76
2018-08-11T20:17:21.432Z,17.76
2018-08-11T20:19:50.653Z,17.65
2018-08-11T20:22:20.418Z,17.58
2018-08-11T20:24:50.054Z,17.53
2018-08-11T20:27:20.854Z,17.40
2018-08-11T20:29:50.985Z,17.28
2018-08-11T20:32:19.749Z,17.20
2018-08-11T20:34:48.817Z,17.18
2018-08-11T20:37:18.355Z,16.95
2018-08-11T20:39:47.873Z,16.98
2018-08-11T20:42:17.497Z,16.94
2018-08-11T20:44:47.188Z,16.83
2018-08-11T20:47:18.327Z,16.79
2018-08-11T20:49:47.501Z,16.80
2018-08-11T20:52:16.230Z,16.75
2018-08-11T20:54:45.927Z,16.77
2018-08-11T20:57:14.409Z,16.81
2018-08-11T20:59:42.891Z,16.81
2018-08-11T21:02:11.714Z,16.72
2018-08-11T21:04:43.425Z,16.48
2018-08-11T21:07:17.915Z,16.33
2018-08-11T21:09:48.301Z,16.12
2018-08-11T21:12:18.284Z,16.10
2018-08-11T21:14:47.897Z,16.22
2018-08-11T21:17:18.377Z,16.28
2018-08-11T21:19:48.425Z,16.01
2018-08-11T21:22:17.745Z,15.51
2018-08-11T21:24:47.246Z,15.09
2018-08-11T21:27:16.770Z,14.94
2018-08-11T21:29:46.393Z,14.81
2018-08-11T21:32:16.632Z,14.90
2018-08-11T21:34:46.907Z,15.04
2018-08-11T21:37:15.885Z,15.03
2018-08-11T21:39:44.929Z,15.09
2018-08-11T21:42:15.801Z,15.18
2018-08-11T21:44:48.695Z,15.19
2018-08-11T21:47:19.031Z,15.28
2018-08-11T21:49:48.571Z,15.35
2018-08-11T21:52:23.182Z,15.29
2018-08-11T21:54:53.114Z,15.24
2018-08-11T21:57:22.050Z,15.09
2018-08-11T21:59:53.181Z,15.03
2018-08-11T22:02:28.929Z,14.86
2018-08-11T22:05:02.223Z,14.73
2018-08-11T22:07:32.750Z,14.70
2018-08-11T22:10:04.362Z,14.65
2018-08-11T22:12:33.616Z,14.71
2018-08-11T22:15:06.666Z,14.66
2018-08-11T22:17:37.307Z,14.65
2018-08-11T22:20:06.560Z,14.58
2018-08-11T22:22:36.599Z,14.34
2018-08-11T22:25:09.370Z,14.32
2018-08-11T22:27:38.902Z,14.10
2018-08-11T22:30:08.713Z,13.97
2018-08-11T22:32:38.438Z,13.77
2018-08-11T22:35:09.590Z,13.74
2018-08-11T22:37:39.021Z,13.78
2018-08-11T22:40:15.113Z,13.94
2018-08-11T22:42:44.358Z,13.97
2018-08-11T22:45:13.579Z,13.90
2018-08-11T22:47:43.536Z,13.86
2018-08-11T22:50:14.961Z,13.92
2018-08-11T22:52:44.165Z,13.94
2018-08-11T22:55:12.705Z,13.63
2018-08-11T22:57:41.775Z,13.76
2018-08-11T23:00:18.139Z,13.64
2018-08-11T23:02:48.050Z,13.31
2018-08-11T23:05:18.042Z,13.22
2018-08-11T23:07:48.438Z,13.28
2018-08-11T23:10:18.553Z,13.37
2018-08-11T23:12:48.326Z,13.45
2018-08-11T23:15:20.129Z,13.54
2018-08-11T23:17:51.126Z,13.55
2018-08-11T23:20:19.789Z,13.59
2018-08-11T23:22:50.156Z,13.59
2018-08-11T23:25:26.816Z,13.58
2018-08-11T23:27:55.855Z,13.57
2018-08-11T23:30:25.378Z,13.46
2018-08-11T23:32:54.228Z,13.45
2018-08-11T23:35:23.725Z,13.32
2018-08-11T23:37:52.983Z,13.31
2018-08-11T23:40:22.679Z,13.18
2018-08-11T23:42:52.322Z,13.20
2018-08-11T23:45:21.897Z,13.22
2018-08-11T23:47:52.273Z,13.30
2018-08-11T23:50:21.750Z,13.38
2018-08-11T23:52:50.471Z,13.38
2018-08-11T23:55:19.393Z,13.31
2018-08-11T23:57:54.430Z,13.21
